createdAt,value
2023-05-25T00:01:50.692Z,7.87
2023-05-25T00:04:19.764Z,10.53
2023-05-25T00:06:47.909Z,9.93
2023-05-25T00:09:16.781Z,8.13
2023-05-25T00:11:45.726Z,8.27
2023-05-25T00:14:15.252Z,7.93
2023-05-25T00:16:45.658Z,7.93
2023-05-25T00:19:13.964Z,9.87
2023-05-25T00:21:42.034Z,8.87
2023-05-25T00:24:09.790Z,9.67
2023-05-25T00:26:37.751Z,8.63
2023-05-25T00:29:05.842Z,8.03
2023-05-25T00:31:36.584Z,13.97
2023-05-25T00:34:04.354Z,8.00
2023-05-25T00:36:32.122Z,11.40
2023-05-25T00:39:00.009Z,7.37
2023-05-25T00:41:29.348Z,10.03
2023-05-25T00:43:57.209Z,6.83
2023-05-25T00:46:27.235Z,6.87
2023-05-25T00:48:57.184Z,6.57
2023-05-25T00:51:26.654Z,8.27
2023-05-25T00:53:55.627Z,6.37
2023-05-25T00:56:30.180Z,6.43
2023-05-25T00:59:01.859Z,6.60
2023-05-25T01:01:33.757Z,8.40
2023-05-25T01:04:04.752Z,8.37
2023-05-25T01:06:34.427Z,7.17
2023-05-25T01:09:05.891Z,7.67
2023-05-25T01:11:36.112Z,7.73
2023-05-25T01:14:05.342Z,7.73
2023-05-25T01:16:33.913Z,7.00
2023-05-25T01:19:04.775Z,7.40
2023-05-25T01:21:42.046Z,7.83
2023-05-25T01:24:17.696Z,7.93
2023-05-25T01:26:49.925Z,6.77
2023-05-25T01:29:20.287Z,5.37
2023-05-25T01:31:49.252Z,8.20
2023-05-25T01:34:18.368Z,6.40
2023-05-25T01:36:47.856Z,6.60
2023-05-25T01:39:16.833Z,6.27
2023-05-25T01:41:44.553Z,5.17
2023-05-25T01:44:12.830Z,7.63
2023-05-25T01:46:42.834Z,7.43
2023-05-25T01:49:18.282Z,5.73
2023-05-25T01:51:58.209Z,6.23
2023-05-25T01:54:35.265Z,7.13
2023-05-25T01:57:06.084Z,9.07
2023-05-25T01:59:35.530Z,7.50
2023-05-25T02:02:04.423Z,8.00
2023-05-25T02:04:32.565Z,6.23
2023-05-25T02:07:01.934Z,5.20
2023-05-25T02:09:29.664Z,6.73
2023-05-25T02:11:57.706Z,4.90
2023-05-25T02:14:26.408Z,6.60
2023-05-25T02:16:55.065Z,7.07
2023-05-25T02:19:22.995Z,7.10
2023-05-25T02:21:50.865Z,5.57
2023-05-25T02:24:20.375Z,6.47
2023-05-25T02:26:48.380Z,6.60
2023-05-25T02:29:16.265Z,6.17
2023-05-25T02:31:44.276Z,7.70
2023-05-25T02:34:13.973Z,8.13
2023-05-25T02:36:43.441Z,6.70
2023-05-25T02:39:12.062Z,5.70
2023-05-25T02:41:42.688Z,6.03
2023-05-25T02:44:10.609Z,7.03
2023-05-25T02:46:38.537Z,7.73
2023-05-25T02:49:06.784Z,6.47
2023-05-25T02:51:34.819Z,4.97
2023-05-25T02:54:02.722Z,5.60
2023-05-25T02:56:31.715Z,5.70
2023-05-25T02:59:03.769Z,5.03
2023-05-25T03:01:32.075Z,5.63
2023-05-25T03:04:00.310Z,6.23
2023-05-25T03:06:28.318Z,5.37
2023-05-25T03:08:56.224Z,5.73
2023-05-25T03:11:24.422Z,5.77
2023-05-25T03:13:54.111Z,5.47
2023-05-25T03:16:24.393Z,6.13
2023-05-25T03:18:52.241Z,5.37
2023-05-25T03:21:22.425Z,6.43
2023-05-25T03:23:50.681Z,5.47
2023-05-25T03:26:19.192Z,5.03
2023-05-25T03:28:47.319Z,5.27
2023-05-25T03:31:15.355Z,4.70
2023-05-25T03:33:45.949Z,4.80
2023-05-25T03:36:17.487Z,4.40
2023-05-25T03:38:45.928Z,5.37
2023-05-25T03:41:13.643Z,5.20
2023-05-25T03:43:41.296Z,8.07
2023-05-25T03:46:10.081Z,6.10
2023-05-25T03:48:38.179Z,7.50
2023-05-25T03:51:07.928Z,5.47
2023-05-25T03:53:36.271Z,5.07
2023-05-25T03:56:04.264Z,5.33
2023-05-25T03:58:32.154Z,6.77
2023-05-25T04:01:00.137Z,6.37
2023-05-25T04:03:28.776Z,6.50
2023-05-25T04:05:58.180Z,5.33
2023-05-25T04:08:28.847Z,5.83
2023-05-25T04:10:59.156Z,5.00
2023-05-25T04:13:26.982Z,6.30
2023-05-25T04:15:55.312Z,5.50
2023-05-25T04:18:23.236Z,5.30
2023-05-25T04:20:50.976Z,5.70
2023-05-25T04:23:20.165Z,5.43
2023-05-25T04:25:51.256Z,6.07
2023-05-25T04:28:19.096Z,6.23
2023-05-25T04:30:48.121Z,5.93
2023-05-25T04:33:18.639Z,8.57
2023-05-25T04:35:46.776Z,6.13
2023-05-25T04:38:17.785Z,8.87
2023-05-25T04:40:46.419Z,6.80
2023-05-25T04:43:18.288Z,7.17
2023-05-25T04:45:47.630Z,8.13
2023-05-25T04:48:15.527Z,9.43
2023-05-25T04:50:43.562Z,7.03
2023-05-25T04:53:11.713Z,8.03
2023-05-25T04:55:40.053Z,8.30
2023-05-25T04:58:08.189Z,7.93
2023-05-25T05:00:40.217Z,7.27
2023-05-25T05:03:08.132Z,6.43
2023-05-25T05:05:37.184Z,7.03
2023-05-25T05:08:05.362Z,7.37
2023-05-25T05:10:33.158Z,7.27
2023-05-25T05:13:00.961Z,9.20
2023-05-25T05:15:28.734Z,8.70
2023-05-25T05:17:58.913Z,9.53
2023-05-25T05:20:26.831Z,9.17
2023-05-25T05:22:55.040Z,8.73
2023-05-25T05:25:22.755Z,7.33
2023-05-25T05:27:51.100Z,7.53
2023-05-25T05:30:18.905Z,10.60
2023-05-25T05:32:47.089Z,8.07
2023-05-25T05:35:16.537Z,7.23
2023-05-25T05:37:44.727Z,8.97
2023-05-25T05:40:12.914Z,6.93
2023-05-25T05:42:41.113Z,6.20
2023-05-25T05:45:09.824Z,5.87
2023-05-25T05:47:38.603Z,6.27
2023-05-25T05:50:07.807Z,6.27
2023-05-25T05:52:37.113Z,6.07
2023-05-25T05:55:05.592Z,9.53
2023-05-25T05:57:33.410Z,8.97
2023-05-25T06:00:01.278Z,7.07
2023-05-25T06:02:29.151Z,6.73
2023-05-25T06:05:01.725Z,6.70
2023-05-25T06:07:31.221Z,7.00
2023-05-25T06:10:00.636Z,7.90
2023-05-25T06:12:28.876Z,8.27
2023-05-25T06:14:56.677Z,6.33
2023-05-25T06:17:24.834Z,6.73
2023-05-25T06:19:53.068Z,4.73
2023-05-25T06:22:22.295Z,6.50
2023-05-25T06:24:50.264Z,5.53
2023-05-25T06:27:19.740Z,6.97
2023-05-25T06:29:47.850Z,6.97
2023-05-25T06:32:16.672Z,6.13
2023-05-25T06:34:44.690Z,6.27
2023-05-25T06:37:12.435Z,6.53
2023-05-25T06:39:40.654Z,7.20
2023-05-25T06:42:09.187Z,8.03
2023-05-25T06:44:38.994Z,7.87
2023-05-25T06:47:08.154Z,6.43
2023-05-25T06:49:37.328Z,6.63
2023-05-25T06:52:06.010Z,6.73
2023-05-25T06:54:34.475Z,8.73
2023-05-25T06:57:02.571Z,9.20
2023-05-25T06:59:31.147Z,9.27
2023-05-25T07:02:01.284Z,7.03
2023-05-25T07:04:30.649Z,8.53
2023-05-25T07:06:58.430Z,7.60
2023-05-25T07:09:26.182Z,10.50
2023-05-25T07:11:54.030Z,8.73
2023-05-25T07:14:22.608Z,9.90
2023-05-25T07:16:50.610Z,9.90
2023-05-25T07:19:20.036Z,12.37
2023-05-25T07:21:47.834Z,11.60
2023-05-25T07:24:15.664Z,9.57
2023-05-25T07:26:44.607Z,10.27
2023-05-25T07:29:13.047Z,9.40
2023-05-25T07:31:40.878Z,11.70
2023-05-25T07:34:09.409Z,9.47
2023-05-25T07:36:39.169Z,8.63
2023-05-25T07:39:07.090Z,8.97
2023-05-25T07:41:34.978Z,8.83
2023-05-25T07:44:02.855Z,7.47
2023-05-25T07:46:31.304Z,10.33
2023-05-25T07:48:59.862Z,9.87
2023-05-25T07:51:31.252Z,9.60
2023-05-25T07:54:01.468Z,9.10
2023-05-25T07:56:29.374Z,10.73
2023-05-25T07:58:58.098Z,9.23
2023-05-25T08:01:27.022Z,9.50
2023-05-25T08:03:55.615Z,7.97
2023-05-25T08:06:23.650Z,7.73
2023-05-25T08:08:52.075Z,8.17
2023-05-25T08:11:24.313Z,9.93
2023-05-25T08:13:52.362Z,9.00
2023-05-25T08:16:20.725Z,7.90
2023-05-25T08:18:48.700Z,7.17
2023-05-25T08:21:16.445Z,7.93
2023-05-25T08:23:44.783Z,7.20
2023-05-25T08:26:30.949Z,6.80
2023-05-25T08:29:02.652Z,6.63
2023-05-25T08:31:30.518Z,6.20
2023-05-25T08:33:59.577Z,5.67
2023-05-25T08:36:27.808Z,5.93
2023-05-25T08:38:55.875Z,5.97
2023-05-25T08:41:23.644Z,5.83
2023-05-25T08:43:51.829Z,7.73
2023-05-25T08:46:32.331Z,5.53
2023-05-25T08:49:05.668Z,4.87
2023-05-25T08:51:38.480Z,5.43
2023-05-25T08:54:10.352Z,5.80
2023-05-25T08:56:43.535Z,5.77
2023-05-25T08:59:19.275Z,5.90
2023-05-25T09:01:54.648Z,6.03
2023-05-25T09:04:24.209Z,5.63
2023-05-25T09:09:23.793Z,6.57
2023-05-25T09:11:52.007Z,5.63
2023-05-25T09:14:21.002Z,7.03
2023-05-25T09:16:51.760Z,5.00
2023-05-25T09:19:19.836Z,5.87
2023-05-25T09:21:47.903Z,6.33
2023-05-25T09:24:16.937Z,6.70
2023-05-25T09:26:48.954Z,6.23
2023-05-25T09:29:17.761Z,6.00
2023-05-25T09:31:45.737Z,6.67
2023-05-25T09:34:16.146Z,5.73
2023-05-25T09:36:44.308Z,7.37
2023-05-25T09:39:13.961Z,7.73
2023-05-25T09:41:42.917Z,7.30
2023-05-25T09:44:12.208Z,7.03
2023-05-25T09:46:40.486Z,6.13
2023-05-25T09:49:09.674Z,6.33
2023-05-25T09:51:39.745Z,5.90
2023-05-25T09:54:11.588Z,6.10
2023-05-25T09:56:39.928Z,7.10
2023-05-25T09:59:07.913Z,8.23
2023-05-25T10:01:36.344Z,7.50
2023-05-25T10:04:05.509Z,6.37
2023-05-25T10:06:34.654Z,8.80
2023-05-25T10:09:05.383Z,7.03
2023-05-25T10:11:36.372Z,7.70
2023-05-25T10:14:08.644Z,8.13
2023-05-25T10:16:39.459Z,7.10
2023-05-25T10:19:11.410Z,7.50
2023-05-25T10:21:41.548Z,6.83
2023-05-25T10:24:21.584Z,7.20
2023-05-25T10:26:54.881Z,7.80
2023-05-25T10:29:25.031Z,8.67
2023-05-25T10:31:54.750Z,7.43
2023-05-25T10:34:23.427Z,7.00
2023-05-25T10:36:55.587Z,6.70
2023-05-25T10:39:27.625Z,6.00
2023-05-25T10:41:56.231Z,6.60
2023-05-25T10:44:26.120Z,8.07
2023-05-25T10:46:54.680Z,6.20
2023-05-25T10:49:34.154Z,7.90
2023-05-25T10:52:03.734Z,8.53
2023-05-25T10:54:36.405Z,7.30
2023-05-25T10:57:12.438Z,10.47
2023-05-25T10:59:45.504Z,6.47
2023-05-25T11:02:13.963Z,8.50
2023-05-25T11:04:41.974Z,7.07
2023-05-25T11:07:14.404Z,6.93
2023-05-25T11:09:45.161Z,5.43
2023-05-25T11:12:22.375Z,6.57
2023-05-25T11:15:15.452Z,5.97
2023-05-25T11:17:48.251Z,7.00
2023-05-25T11:20:24.773Z,6.03
2023-05-25T11:22:53.466Z,5.33
2023-05-25T11:25:41.413Z,5.17
2023-05-25T11:28:11.992Z,6.00
2023-05-25T11:30:42.323Z,6.70
2023-05-25T11:33:11.203Z,6.43
2023-05-25T11:35:38.991Z,6.90
2023-05-25T11:38:07.840Z,6.37
2023-05-25T11:40:38.542Z,4.93
2023-05-25T11:43:10.767Z,5.83
2023-05-25T11:45:39.517Z,4.53
2023-05-25T11:48:07.880Z,6.73
2023-05-25T11:50:35.860Z,6.47
2023-05-25T11:53:07.344Z,5.40
2023-05-25T11:55:35.300Z,4.80
2023-05-25T11:58:03.200Z,6.80
2023-05-25T12:00:33.414Z,6.00
2023-05-25T12:03:01.362Z,6.37
2023-05-25T12:05:38.566Z,4.37
2023-05-25T12:08:07.038Z,5.23
2023-05-25T12:10:35.100Z,7.10
2023-05-25T12:13:04.710Z,8.43
2023-05-25T12:15:34.363Z,6.63
2023-05-25T12:18:02.433Z,5.27
2023-05-25T12:20:30.311Z,6.43
2023-05-25T12:22:59.245Z,8.23
2023-05-25T12:25:28.857Z,4.47
2023-05-25T12:28:13.009Z,5.60
2023-05-25T12:30:43.411Z,5.30
2023-05-25T12:33:14.458Z,4.60
2023-05-25T12:35:46.935Z,4.40
2023-05-25T12:38:15.335Z,4.50
2023-05-25T12:40:45.249Z,3.63
2023-05-25T12:43:14.372Z,3.53
2023-05-25T12:45:44.516Z,4.20
2023-05-25T12:48:12.659Z,4.63
2023-05-25T12:50:41.188Z,4.07
2023-05-25T12:53:09.200Z,5.60
2023-05-25T12:55:39.375Z,5.27
2023-05-25T12:58:08.363Z,4.90
2023-05-25T13:00:37.781Z,4.83
2023-05-25T13:03:08.435Z,6.23
2023-05-25T13:05:38.903Z,3.73
2023-05-25T13:08:07.656Z,4.07
2023-05-25T13:10:38.173Z,6.20
2023-05-25T13:13:12.302Z,4.38
2023-05-25T13:15:40.230Z,4.97
2023-05-25T13:18:09.726Z,4.30
2023-05-25T13:20:38.474Z,4.32
2023-05-25T13:23:06.796Z,4.60
2023-05-25T13:25:35.011Z,4.40
2023-05-25T13:28:03.203Z,3.17
2023-05-25T13:30:31.199Z,5.83
2023-05-25T13:32:59.222Z,4.23
2023-05-25T13:35:42.290Z,3.90
2023-05-25T13:38:11.338Z,4.27
2023-05-25T13:40:39.427Z,3.83
2023-05-25T13:43:07.496Z,3.80
2023-05-25T13:45:35.209Z,3.00
2023-05-25T13:48:03.554Z,3.67
2023-05-25T13:50:33.407Z,4.17
2023-05-25T13:53:01.450Z,5.03
2023-05-25T13:55:29.264Z,4.73
2023-05-25T13:57:57.124Z,4.00
2023-05-25T14:00:25.166Z,4.23
2023-05-25T14:02:53.313Z,6.25
2023-05-25T14:05:21.350Z,3.17
2023-05-25T14:07:51.013Z,4.55
2023-05-25T14:10:39.662Z,7.38
2023-05-25T14:13:07.382Z,4.85
2023-05-25T14:15:35.313Z,3.90
2023-05-25T14:18:03.755Z,3.45
2023-05-25T14:20:34.203Z,4.50
2023-05-25T14:23:03.922Z,5.32
2023-05-25T14:25:31.911Z,4.55
2023-05-25T14:28:00.138Z,4.75
2023-05-25T14:30:28.097Z,5.47
2023-05-25T14:32:55.869Z,5.33
2023-05-25T14:35:24.532Z,5.63
2023-05-25T14:37:52.371Z,5.27
2023-05-25T14:40:22.155Z,4.13
2023-05-25T14:42:49.970Z,6.60
2023-05-25T14:45:18.425Z,5.47
2023-05-25T14:47:47.636Z,5.40
2023-05-25T14:50:16.481Z,4.45
2023-05-25T14:52:44.421Z,4.20
2023-05-25T14:55:12.520Z,6.25
2023-05-25T14:57:42.107Z,3.95
2023-05-25T15:00:11.334Z,4.97
2023-05-25T15:02:39.697Z,5.65
2023-05-25T15:05:08.901Z,5.60
2023-05-25T15:07:36.862Z,8.05
2023-05-25T15:10:05.442Z,7.82
2023-05-25T15:12:33.218Z,5.60
2023-05-25T15:15:02.902Z,5.18
2023-05-25T15:17:30.940Z,5.85
2023-05-25T15:19:59.632Z,5.22
2023-05-25T15:22:27.693Z,5.75
2023-05-25T15:24:55.694Z,5.18
2023-05-25T15:27:23.557Z,6.28
2023-05-25T15:29:51.411Z,5.18
2023-05-25T15:32:20.965Z,4.65
2023-05-25T15:34:49.140Z,6.22
2023-05-25T15:37:18.465Z,6.28
2023-05-25T15:39:46.257Z,7.30
2023-05-25T15:42:15.166Z,5.97
2023-05-25T15:44:43.001Z,6.43
2023-05-25T15:47:11.069Z,8.13
2023-05-25T15:49:41.695Z,5.75
2023-05-25T15:52:09.466Z,7.00
2023-05-25T15:54:37.730Z,6.82
2023-05-25T15:57:07.113Z,4.60
2023-05-25T15:59:36.370Z,5.35
2023-05-25T16:02:04.332Z,6.47
2023-05-25T16:04:32.487Z,5.47
2023-05-25T16:07:02.206Z,6.65
2023-05-25T16:09:30.070Z,7.65
2023-05-25T16:11:58.097Z,6.40
2023-05-25T16:14:26.196Z,5.25
2023-05-25T16:16:54.348Z,6.50
2023-05-25T16:19:22.323Z,5.05
2023-05-25T16:21:50.502Z,5.30
2023-05-25T16:24:19.796Z,7.28
2023-05-25T16:26:47.841Z,6.38
2023-05-25T16:29:15.756Z,8.98
2023-05-25T16:31:43.557Z,5.43
2023-05-25T16:34:11.604Z,7.90
2023-05-25T16:36:39.756Z,6.50
2023-05-25T16:39:08.107Z,7.20
2023-05-25T16:41:37.436Z,5.18
2023-05-25T16:44:05.370Z,9.20
2023-05-25T16:46:33.388Z,7.00
2023-05-25T16:49:01.246Z,6.55
2023-05-25T16:51:32.135Z,6.63
2023-05-25T16:54:00.309Z,7.22
2023-05-25T16:56:28.199Z,5.85
2023-05-25T16:58:57.847Z,6.55
2023-05-25T17:01:26.109Z,5.90
2023-05-25T17:03:54.254Z,6.55
2023-05-25T17:06:22.289Z,7.40
2023-05-25T17:08:53.364Z,8.45
2023-05-25T17:11:26.421Z,6.57
2023-05-25T17:13:54.952Z,7.75
2023-05-25T17:16:24.313Z,6.85
2023-05-25T17:18:52.364Z,9.98
2023-05-25T17:21:20.358Z,8.52
2023-05-25T17:23:49.269Z,8.40
2023-05-25T17:26:17.235Z,7.40
2023-05-25T17:28:45.321Z,9.02
2023-05-25T17:31:14.092Z,7.78
2023-05-25T17:33:44.030Z,9.75
2023-05-25T17:36:12.135Z,7.50
2023-05-25T17:38:41.381Z,8.95
2023-05-25T17:41:09.401Z,8.32
2023-05-25T17:43:37.503Z,7.10
2023-05-25T17:46:06.680Z,9.57
2023-05-25T17:48:35.188Z,7.05
2023-05-25T17:51:05.185Z,9.38
2023-05-25T17:53:34.396Z,10.32
2023-05-25T17:56:02.620Z,9.80
2023-05-25T17:58:30.613Z,11.25
2023-05-25T18:01:00.011Z,7.78
2023-05-25T18:03:30.932Z,8.82
2023-05-25T18:05:58.793Z,11.57
2023-05-25T18:08:29.082Z,8.30
2023-05-25T18:10:59.980Z,9.45
2023-05-25T18:13:27.830Z,12.80
2023-05-25T18:15:55.792Z,8.73
2023-05-25T18:18:24.850Z,10.13
2023-05-25T18:20:53.455Z,10.73
2023-05-25T18:23:22.545Z,9.40
2023-05-25T18:25:55.198Z,9.50
2023-05-25T18:28:23.690Z,9.85
2023-05-25T18:30:51.566Z,8.43
2023-05-25T18:33:19.517Z,8.98
2023-05-25T18:35:47.658Z,9.35
2023-05-25T18:38:16.257Z,8.30
2023-05-25T18:40:47.450Z,9.68
2023-05-25T18:43:16.828Z,8.55
2023-05-25T18:45:47.935Z,9.37
2023-05-25T18:48:18.177Z,9.70
2023-05-25T18:50:47.228Z,8.53
2023-05-25T18:53:17.978Z,8.83
2023-05-25T18:55:46.488Z,9.27
2023-05-25T18:58:16.260Z,8.80
2023-05-25T19:00:44.032Z,9.80
2023-05-25T19:03:12.009Z,10.83
2023-05-25T19:05:39.902Z,10.70
2023-05-25T19:08:07.725Z,12.50
2023-05-25T19:10:35.758Z,9.73
2023-05-25T19:13:03.899Z,9.57
2023-05-25T19:15:33.561Z,8.93
2023-05-25T19:18:03.682Z,11.57
2023-05-25T19:20:32.909Z,9.00
2023-05-25T19:23:01.133Z,8.83
2023-05-25T19:25:31.814Z,12.07
2023-05-25T19:28:00.577Z,10.63
2023-05-25T19:30:28.326Z,11.03
2023-05-25T19:32:57.753Z,12.27
2023-05-25T19:35:25.845Z,7.13
2023-05-25T19:37:56.543Z,16.33
2023-05-25T19:40:25.245Z,10.93
2023-05-25T19:42:53.223Z,10.10
2023-05-25T19:45:21.269Z,10.23
2023-05-25T19:47:49.283Z,11.30
2023-05-25T19:50:19.324Z,10.60
2023-05-25T19:52:47.312Z,12.80
2023-05-25T19:55:15.594Z,11.67
2023-05-25T19:57:46.337Z,12.00
2023-05-25T20:00:25.395Z,12.47
2023-05-25T20:02:55.164Z,10.73
2023-05-25T20:05:25.098Z,10.07
2023-05-25T20:07:56.029Z,11.60
2023-05-25T20:10:24.228Z,12.57
2023-05-25T20:12:52.224Z,10.27
2023-05-25T20:15:20.699Z,12.90
2023-05-25T20:17:48.591Z,11.67
2023-05-25T20:20:17.431Z,14.67
2023-05-25T20:22:47.434Z,11.33
2023-05-25T20:25:15.975Z,13.33
2023-05-25T20:27:44.232Z,14.57
2023-05-25T20:30:14.340Z,11.57
2023-05-25T20:32:44.208Z,12.40
2023-05-25T20:35:12.315Z,12.77
2023-05-25T20:37:40.325Z,10.43
2023-05-25T20:40:10.425Z,10.37
2023-05-25T20:42:38.531Z,17.97
2023-05-25T20:45:07.687Z,15.77
2023-05-25T20:47:35.552Z,13.23
2023-05-25T20:50:04.289Z,12.70
2023-05-25T20:52:33.564Z,13.43
2023-05-25T20:55:01.646Z,11.80
2023-05-25T20:57:31.529Z,12.83
2023-05-25T21:00:00.129Z,13.90
2023-05-25T21:02:28.807Z,13.27
2023-05-25T21:04:56.734Z,14.00
2023-05-25T21:07:24.650Z,13.77
2023-05-25T21:09:53.003Z,13.00
2023-05-25T21:12:20.845Z,13.93
2023-05-25T21:14:49.998Z,13.17
2023-05-25T21:17:20.117Z,11.33
2023-05-25T21:19:49.026Z,12.80
2023-05-25T21:22:16.919Z,12.70
2023-05-25T21:24:45.112Z,12.10
2023-05-25T21:27:14.159Z,13.90
2023-05-25T21:29:42.115Z,13.87
2023-05-25T21:32:12.243Z,12.43
2023-05-25T21:34:40.521Z,13.73
2023-05-25T21:37:08.767Z,11.87
2023-05-25T21:39:36.544Z,13.03
2023-05-25T21:42:04.521Z,12.03
2023-05-25T21:44:32.618Z,15.83
2023-05-25T21:47:00.379Z,17.43
2023-05-25T21:49:29.939Z,12.27
2023-05-25T21:51:57.708Z,13.47
2023-05-25T21:54:25.404Z,11.73
2023-05-25T21:56:53.504Z,14.43
2023-05-25T21:59:21.651Z,9.80
2023-05-25T22:01:49.557Z,14.00
2023-05-25T22:04:17.409Z,14.57
2023-05-25T22:06:47.925Z,16.23
2023-05-25T22:09:16.098Z,10.97
2023-05-25T22:11:43.953Z,13.37
2023-05-25T22:14:12.168Z,13.27
2023-05-25T22:16:39.984Z,12.70
2023-05-25T22:19:08.163Z,15.53
2023-05-25T22:21:37.559Z,15.13
2023-05-25T22:24:07.807Z,9.40
2023-05-25T22:26:35.625Z,14.60
2023-05-25T22:29:03.926Z,18.57
2023-05-25T22:31:31.970Z,11.50
2023-05-25T22:34:00.947Z,12.20
2023-05-25T22:36:28.708Z,14.60
2023-05-25T22:38:56.595Z,12.60
2023-05-25T22:41:26.647Z,15.27
2023-05-25T22:43:54.977Z,11.87
2023-05-25T22:46:23.588Z,10.97
2023-05-25T22:48:51.960Z,11.53
2023-05-25T22:51:19.933Z,11.97
2023-05-25T22:53:47.732Z,14.70
2023-05-25T22:56:15.715Z,12.30
2023-05-25T22:58:45.270Z,13.70
2023-05-25T23:01:13.019Z,13.20
2023-05-25T23:03:41.007Z,12.70
2023-05-25T23:06:09.628Z,12.80
2023-05-25T23:08:37.536Z,14.00
2023-05-25T23:11:05.275Z,12.30
2023-05-25T23:13:33.085Z,15.07
2023-05-25T23:16:02.845Z,11.73
2023-05-25T23:18:30.879Z,14.97
2023-05-25T23:20:58.685Z,13.37
2023-05-25T23:23:27.603Z,14.77
2023-05-25T23:25:57.564Z,17.07
2023-05-25T23:28:25.278Z,13.93
2023-05-25T23:30:53.205Z,15.13
2023-05-25T23:33:22.845Z,13.00
2023-05-25T23:35:50.779Z,14.87
2023-05-25T23:38:19.081Z,16.50
2023-05-25T23:40:47.185Z,17.63
2023-05-25T23:43:16.424Z,16.57
2023-05-25T23:45:45.578Z,16.57
2023-05-25T23:48:14.190Z,14.37
2023-05-25T23:50:43.781Z,14.00
2023-05-25T23:53:13.094Z,15.57
2023-05-25T23:55:40.798Z,13.20
2023-05-25T23:58:08.591Z,18.27
